Time;durP1;ratioP1;P1;durP2;ratioP2;P2;SDS_P1;SDS_P2;PMS_P1;PMS_P2;Temp;Humidity;BMP_temperature;BMP_pressure;BME280_temperature;BME280_humidity;BME280_pressure;Samples;Min_cycle;Max_cycle;Signal;HPM_P1;HPM_P2
2022/05/16 00:00:20;;;;;;;3.03;1.58;;;;;24.90;101312.00;;;;5082020;28;20218;-76
2022/05/16 00:02:49;;;;;;;3.25;1.45;;;;;24.90;101310.00;;;;5088238;28;20288;-76
2022/05/16 00:05:17;;;;;;;4.03;1.77;;;;;24.90;101311.00;;;;5086204;28;20194;-76
2022/05/16 00:07:44;;;;;;;3.78;1.52;;;;;24.80;101308.00;;;;5087288;28;20218;-76
2022/05/16 00:10:12;;;;;;;2.83;1.50;;;;;24.80;101306.00;;;;5082726;28;20205;-76
2022/05/16 00:12:40;;;;;;;3.78;1.80;;;;;24.80;101300.00;;;;5073862;28;20210;-76
2022/05/16 00:15:09;;;;;;;3.08;1.58;;;;;24.80;101304.00;;;;5082111;28;20194;-76
2022/05/16 00:17:37;;;;;;;9.30;1.80;;;;;24.80;101296.00;;;;5081088;28;20679;-76
2022/05/16 00:20:07;;;;;;;3.38;1.55;;;;;24.70;101293.00;;;;5082046;28;20221;-77
2022/05/16 00:22:35;;;;;;;4.80;2.08;;;;;24.70;101283.00;;;;5089754;28;20198;-77
2022/05/16 00:25:03;;;;;;;5.82;1.67;;;;;24.70;101277.00;;;;5085208;28;20217;-76
2022/05/16 00:27:34;;;;;;;5.50;1.65;;;;;24.70;101284.00;;;;5076819;28;20260;-77
2022/05/16 00:30:02;;;;;;;4.75;1.60;;;;;24.70;101279.00;;;;5080329;28;20205;-77
2022/05/16 00:32:29;;;;;;;2.22;1.23;;;;;24.60;101281.00;;;;5086876;28;20209;-76
2022/05/16 00:34:56;;;;;;;3.42;1.40;;;;;24.60;101269.00;;;;5088411;28;20206;-77
2022/05/16 00:37:25;;;;;;;4.20;2.17;;;;;24.60;101278.00;;;;5087969;28;20206;-77
2022/05/16 00:39:52;;;;;;;6.43;2.13;;;;;24.60;101274.00;;;;5077041;28;20219;-77
2022/05/16 00:42:20;;;;;;;3.85;1.60;;;;;24.60;101267.00;;;;5080533;28;20190;-77
2022/05/16 00:44:47;;;;;;;4.35;1.95;;;;;24.50;101273.00;;;;5087810;28;20254;-77
2022/05/16 00:47:16;;;;;;;3.28;1.80;;;;;24.50;101265.00;;;;5085579;28;20221;-77
2022/05/16 00:49:47;;;;;;;4.57;1.58;;;;;24.50;101265.00;;;;5084877;28;20213;-76
2022/05/16 00:52:18;;;;;;;2.78;1.35;;;;;24.40;101260.00;;;;5087138;28;20217;-77
2022/05/16 00:54:51;;;;;;;2.85;1.67;;;;;24.40;101259.00;;;;5088823;28;20739;-77
2022/05/16 00:57:23;;;;;;;2.40;1.30;;;;;24.40;101265.00;;;;5086185;28;20198;-77
2022/05/16 00:59:55;;;;;;;3.22;1.52;;;;;24.40;101260.00;;;;5081641;28;20206;-77
2022/05/16 01:05:10;;;;;;;3.35;1.63;;;;;24.40;101266.00;;;;5077375;28;20675;-77
2022/05/16 01:07:40;;;;;;;3.08;1.75;;;;;24.30;101257.00;;;;5080858;28;20218;-76
2022/05/16 01:10:10;;;;;;;3.97;1.90;;;;;24.30;101259.00;;;;5084591;28;20278;-76
2022/05/16 01:12:40;;;;;;;5.50;1.73;;;;;24.30;101262.00;;;;5079084;28;20657;-76
2022/05/16 01:15:09;;;;;;;4.60;2.03;;;;;24.30;101261.00;;;;5075045;28;20598;-77
2022/05/16 01:17:37;;;;;;;4.32;1.70;;;;;24.30;101254.00;;;;5079205;28;20195;-77
2022/05/16 01:20:05;;;;;;;5.78;2.00;;;;;24.20;101253.00;;;;5079190;28;20293;-77
2022/05/16 01:22:37;;;;;;;5.07;1.80;;;;;24.20;101249.00;;;;5088429;28;20207;-77
2022/05/16 01:25:08;;;;;;;6.75;1.42;;;;;24.20;101248.00;;;;5085560;28;20198;-77
2022/05/16 01:27:45;;;;;;;3.53;1.35;;;;;24.10;101242.00;;;;5084298;28;20226;-77
2022/05/16 01:30:14;;;;;;;3.38;1.63;;;;;24.10;101238.00;;;;5086496;28;20212;-77
2022/05/16 01:32:42;;;;;;;4.10;1.30;;;;;24.10;101231.00;;;;5088498;28;20222;-77
2022/05/16 01:35:10;;;;;;;4.35;1.83;;;;;24.10;101225.00;;;;5086489;28;20613;-77
2022/05/16 01:40:24;;;;;;;5.72;1.77;;;;;24.00;101225.00;;;;5082357;28;20698;-77
2022/05/16 01:42:51;;;;;;;3.60;1.60;;;;;24.00;101219.00;;;;5087521;28;20285;-77
2022/05/16 01:45:21;;;;;;;4.68;1.42;;;;;23.90;101220.00;;;;5087180;28;20780;-77
2022/05/16 01:47:49;;;;;;;2.25;1.38;;;;;23.90;101217.00;;;;5082343;28;20340;-77
2022/05/16 01:50:16;;;;;;;2.38;1.42;;;;;23.90;101223.00;;;;5087915;28;20615;-76
2022/05/16 01:52:45;;;;;;;2.40;1.75;;;;;23.80;101215.00;;;;5084043;28;20218;-76
2022/05/16 01:55:12;;;;;;;4.63;1.80;;;;;23.80;101213.00;;;;5080430;28;20198;-77
2022/05/16 01:57:40;;;;;;;6.22;2.00;;;;;23.80;101212.00;;;;5082123;28;20754;-77
2022/05/16 02:00:10;;;;;;;3.97;2.05;;;;;23.80;101211.00;;;;5083689;28;20247;-77
2022/05/16 02:02:41;;;;;;;4.03;1.67;;;;;23.70;101198.00;;;;5086820;28;20259;-76
2022/05/16 02:05:09;;;;;;;5.10;2.00;;;;;23.70;101197.00;;;;5086445;28;20223;-77
2022/05/16 02:07:36;;;;;;;4.40;1.70;;;;;23.70;101184.00;;;;5091215;28;20684;-77
2022/05/16 02:10:06;;;;;;;2.25;1.63;;;;;23.70;101189.00;;;;5074281;28;20209;-77
2022/05/16 02:12:34;;;;;;;7.13;1.95;;;;;23.70;101187.00;;;;5084271;28;20281;-76
2022/05/16 02:15:02;;;;;;;3.40;1.65;;;;;23.60;101191.00;;;;5074414;28;20260;-76
2022/05/16 02:17:29;;;;;;;3.13;1.70;;;;;23.60;101185.00;;;;5084282;28;20220;-77
2022/05/16 02:19:57;;;;;;;3.78;1.70;;;;;23.60;101184.00;;;;5084611;28;20687;-76
2022/05/16 02:25:10;;;;;;;3.85;1.63;;;;;23.50;101180.00;;;;5091870;28;20215;-76
2022/05/16 02:27:38;;;;;;;4.35;1.90;;;;;23.50;101173.00;;;;5079382;28;20218;-77
2022/05/16 02:30:07;;;;;;;4.18;1.85;;;;;23.50;101177.00;;;;5081786;28;20206;-76
2022/05/16 02:32:34;;;;;;;7.03;1.67;;;;;23.50;101178.00;;;;5080897;28;20194;-77
2022/05/16 02:35:01;;;;;;;2.17;1.50;;;;;23.50;101178.00;;;;5081300;28;20209;-76
2022/05/16 02:37:29;;;;;;;6.13;1.92;;;;;23.50;101177.00;;;;5080295;28;20202;-76
2022/05/16 02:39:56;;;;;;;3.53;1.60;;;;;23.50;101173.00;;;;5082625;28;20222;-77
2022/05/16 02:42:24;;;;;;;3.55;1.95;;;;;23.50;101173.00;;;;5069683;28;20198;-76
2022/05/16 02:44:52;;;;;;;10.13;2.50;;;;;23.50;101163.00;;;;5080090;28;20195;-76
2022/05/16 02:47:21;;;;;;;3.92;1.83;;;;;23.40;101164.00;;;;5081368;28;20194;-76
2022/05/16 02:49:49;;;;;;;3.22;1.80;;;;;23.40;101168.00;;;;5075044;28;20209;-76
2022/05/16 02:52:17;;;;;;;4.13;2.10;;;;;23.40;101164.00;;;;5086542;28;20217;-76
2022/05/16 02:54:44;;;;;;;5.60;2.10;;;;;23.40;101163.00;;;;5084192;28;20198;-77
2022/05/16 02:57:11;;;;;;;3.30;1.65;;;;;23.40;101158.00;;;;5075786;28;20299;-77
2022/05/16 02:59:41;;;;;;;4.25;1.92;;;;;23.30;101161.00;;;;5084535;28;20331;-77
2022/05/16 03:02:10;;;;;;;5.32;1.80;;;;;23.30;101157.00;;;;5081254;28;20248;-76
2022/05/16 03:04:38;;;;;;;4.03;2.00;;;;;23.30;101153.00;;;;5085024;28;20197;-77
2022/05/16 03:07:06;;;;;;;3.03;2.00;;;;;23.30;101154.00;;;;5083338;28;20622;-76
2022/05/16 03:09:34;;;;;;;3.78;2.00;;;;;23.30;101153.00;;;;5075158;28;20221;-76
2022/05/16 03:12:01;;;;;;;3.85;1.90;;;;;23.30;101145.00;;;;5082433;28;20195;-76
2022/05/16 03:14:29;;;;;;;3.13;2.22;;;;;23.20;101142.00;;;;5085538;28;20212;-77
2022/05/16 03:16:57;;;;;;;5.55;2.05;;;;;23.20;101140.00;;;;5080942;28;20198;-76
2022/05/16 03:19:25;;;;;;;4.80;1.70;;;;;23.20;101137.00;;;;5086603;28;20303;-77
2022/05/16 03:21:52;;;;;;;3.03;1.92;;;;;23.20;101130.00;;;;5085776;28;20977;-77
2022/05/16 03:24:19;;;;;;;3.33;1.88;;;;;23.10;101132.00;;;;5086191;28;20202;-76
2022/05/16 03:26:46;;;;;;;6.28;1.92;;;;;23.10;101126.00;;;;5085847;28;20202;-77
2022/05/16 03:29:14;;;;;;;3.60;2.30;;;;;23.10;101130.00;;;;5080129;28;20229;-77
2022/05/16 03:31:42;;;;;;;3.35;2.03;;;;;23.10;101134.00;;;;5079571;28;20195;-76
2022/05/16 03:34:11;;;;;;;3.20;2.28;;;;;23.10;101126.00;;;;5082560;28;20190;-77
2022/05/16 03:36:39;;;;;;;3.03;1.60;;;;;23.10;101121.00;;;;5080857;28;20206;-78
2022/05/16 03:41:52;;;;;;;4.45;1.50;;;;;23.10;101133.00;;;;5087259;28;20247;-76
2022/05/16 03:44:21;;;;;;;3.13;1.95;;;;;23.00;101125.00;;;;5087048;28;20209;-77
2022/05/16 03:46:48;;;;;;;3.30;2.03;;;;;23.00;101122.00;;;;5087404;28;20213;-77
2022/05/16 03:49:18;;;;;;;3.50;2.50;;;;;23.00;101126.00;;;;5088899;28;20251;-77
2022/05/16 03:51:45;;;;;;;3.38;1.88;;;;;23.00;101126.00;;;;5080385;28;20210;-76
2022/05/16 03:54:12;;;;;;;6.10;1.85;;;;;23.00;101131.00;;;;5085345;28;20222;-76
2022/05/16 03:56:40;;;;;;;3.13;1.75;;;;;23.00;101123.00;;;;5083766;28;20232;-76
2022/05/16 03:59:07;;;;;;;3.08;1.80;;;;;23.00;101128.00;;;;5085105;28;20300;-76
2022/05/16 04:01:35;;;;;;;3.65;1.80;;;;;23.00;101116.00;;;;5087328;28;20194;-76
2022/05/16 04:04:02;;;;;;;3.22;2.10;;;;;23.00;101116.00;;;;5084339;28;20213;-76
2022/05/16 04:06:34;;;;;;;3.22;2.00;;;;;23.00;101119.00;;;;5084143;28;20190;-76
2022/05/16 04:09:01;;;;;;;2.30;1.73;;;;;23.00;101126.00;;;;5083600;28;20218;-76
2022/05/16 04:11:29;;;;;;;4.65;2.10;;;;;23.00;101119.00;;;;5086325;28;20200;-76
2022/05/16 04:13:58;;;;;;;2.10;1.70;;;;;23.00;101125.00;;;;5083203;28;20224;-76
2022/05/16 04:16:25;;;;;;;6.82;2.17;;;;;23.00;101122.00;;;;5085277;28;20256;-76
2022/05/16 04:18:52;;;;;;;2.53;1.55;;;;;23.00;101128.00;;;;5076985;28;20194;-76
2022/05/16 04:21:19;;;;;;;4.60;2.00;;;;;23.00;101123.00;;;;5086284;28;20729;-76
2022/05/16 04:23:49;;;;;;;5.22;2.05;;;;;23.00;101124.00;;;;5083197;28;20202;-76
2022/05/16 04:26:17;;;;;;;3.65;1.95;;;;;23.00;101126.00;;;;5087296;28;21020;-76
2022/05/16 04:28:45;;;;;;;3.97;2.10;;;;;23.00;101126.00;;;;5079494;28;20214;-75
2022/05/16 04:31:12;;;;;;;3.92;1.92;;;;;23.00;101130.00;;;;5084928;28;20197;-76
2022/05/16 04:33:39;;;;;;;8.13;2.60;;;;;23.10;101130.00;;;;5082206;28;20198;-75
2022/05/16 04:36:07;;;;;;;3.60;2.08;;;;;23.10;101130.00;;;;5079795;28;20550;-75
2022/05/16 04:38:34;;;;;;;3.53;2.00;;;;;23.10;101130.00;;;;5081859;28;20411;-76
2022/05/16 04:43:47;;;;;;;5.43;2.10;;;;;23.10;101125.00;;;;5085450;28;20205;-76
2022/05/16 04:46:15;;;;;;;3.97;1.75;;;;;23.10;101127.00;;;;5082219;28;20219;-76
2022/05/16 04:48:42;;;;;;;3.10;2.30;;;;;23.10;101136.00;;;;5082398;28;20218;-75
2022/05/16 04:51:10;;;;;;;4.38;1.92;;;;;23.20;101137.00;;;;5076726;28;20234;-76
2022/05/16 04:53:37;;;;;;;7.60;2.55;;;;;23.20;101130.00;;;;5089284;28;20222;-75
2022/05/16 04:56:06;;;;;;;5.28;2.30;;;;;23.20;101132.00;;;;5087607;28;20198;-76
2022/05/16 04:58:34;;;;;;;5.80;1.77;;;;;23.20;101134.00;;;;5082842;28;20333;-76
2022/05/16 05:01:01;;;;;;;3.17;1.98;;;;;23.30;101136.00;;;;5079338;28;20194;-76
2022/05/16 05:03:29;;;;;;;6.80;2.20;;;;;23.30;101128.00;;;;5087842;28;20668;-76
2022/05/16 05:05:58;;;;;;;3.63;2.15;;;;;23.30;101128.00;;;;5076910;28;20209;-76
2022/05/16 05:08:25;;;;;;;3.13;2.08;;;;;23.40;101127.00;;;;5083999;28;20315;-76
2022/05/16 05:16:30;;;;;;;3.45;1.92;;;;;23.50;101137.00;;;;5073933;28;20214;-76
2022/05/16 05:18:57;;;;;;;2.58;1.77;;;;;23.50;101135.00;;;;5077006;28;20186;-76
2022/05/16 05:21:25;;;;;;;4.88;2.25;;;;;23.50;101139.00;;;;5085032;28;20194;-77
2022/05/16 05:23:55;;;;;;;4.32;2.72;;;;;23.60;101135.00;;;;5086350;28;20766;-77
2022/05/16 05:26:22;;;;;;;3.75;2.47;;;;;23.60;101128.00;;;;5083503;28;20198;-76
2022/05/16 05:28:50;;;;;;;3.55;2.00;;;;;23.60;101126.00;;;;5077831;28;20233;-76
2022/05/16 05:31:20;;;;;;;4.68;2.30;;;;;23.70;101131.00;;;;5086114;28;20565;-76
2022/05/16 05:33:48;;;;;;;5.88;2.53;;;;;23.80;101124.00;;;;5084086;28;20198;-76
2022/05/16 05:36:15;;;;;;;4.55;2.58;;;;;23.80;101127.00;;;;5082018;28;20208;-76
2022/05/16 05:38:44;;;;;;;4.97;2.33;;;;;23.90;101124.00;;;;5075877;28;20217;-76
2022/05/16 05:41:12;;;;;;;6.60;2.17;;;;;24.00;101132.00;;;;5081851;28;20220;-76
2022/05/16 05:43:41;;;;;;;8.50;2.80;;;;;24.00;101136.00;;;;5087885;28;20198;-76
2022/05/16 05:46:10;;;;;;;4.35;2.40;;;;;24.10;101133.00;;;;5068510;28;20195;-76
2022/05/16 05:48:37;;;;;;;4.22;2.25;;;;;24.20;101131.00;;;;5081582;28;20226;-75
2022/05/16 05:51:04;;;;;;;3.53;2.05;;;;;24.20;101144.00;;;;5087490;28;20210;-75
2022/05/16 05:53:32;;;;;;;3.50;1.98;;;;;24.30;101137.00;;;;5067983;28;20765;-76
2022/05/16 05:55:59;;;;;;;3.55;2.10;;;;;24.40;101140.00;;;;5078160;28;20680;-76
2022/05/16 05:58:27;;;;;;;3.60;2.22;;;;;24.50;101143.00;;;;5088728;28;20201;-76
2022/05/16 06:00:54;;;;;;;4.38;2.10;;;;;24.50;101139.00;;;;5082911;28;20290;-77
2022/05/16 06:03:23;;;;;;;6.38;2.35;;;;;24.60;101142.00;;;;5079043;28;20688;-77
2022/05/16 06:05:50;;;;;;;6.75;2.50;;;;;24.70;101137.00;;;;5068253;28;20203;-77
2022/05/16 06:08:17;;;;;;;3.63;2.38;;;;;24.70;101148.00;;;;5079623;28;20191;-77
2022/05/16 06:10:45;;;;;;;5.25;2.22;;;;;24.80;101138.00;;;;5076903;28;20245;-77
2022/05/16 06:13:12;;;;;;;3.83;2.25;;;;;24.90;101142.00;;;;5086195;28;20715;-77
2022/05/16 06:15:39;;;;;;;4.25;2.35;;;;;24.90;101153.00;;;;5077565;28;20202;-76
2022/05/16 06:18:07;;;;;;;3.97;2.72;;;;;25.00;101158.00;;;;5074613;28;20198;-77
2022/05/16 06:20:37;;;;;;;5.65;2.55;;;;;25.00;101165.00;;;;5085198;28;20194;-77
2022/05/16 06:23:04;;;;;;;3.35;2.45;;;;;25.10;101170.00;;;;5086178;28;20198;-77
2022/05/16 06:25:31;;;;;;;3.70;2.22;;;;;25.10;101163.00;;;;5086247;28;20194;-77
2022/05/16 06:27:58;;;;;;;4.15;2.58;;;;;25.10;101162.00;;;;5079369;28;20198;-77
2022/05/16 06:30:26;;;;;;;3.60;2.55;;;;;25.20;101167.00;;;;5079016;28;20213;-77
2022/05/16 06:32:53;;;;;;;6.38;2.33;;;;;25.20;101168.00;;;;5084187;28;20213;-77
2022/05/16 06:35:21;;;;;;;5.25;2.90;;;;;25.20;101170.00;;;;5085510;28;20208;-77
2022/05/16 06:37:50;;;;;;;9.25;2.60;;;;;25.20;101174.00;;;;5082122;28;20205;-77
2022/05/16 06:40:19;;;;;;;3.45;2.55;;;;;25.20;101181.00;;;;5083650;28;20226;-77
2022/05/16 06:42:46;;;;;;;3.55;2.70;;;;;25.20;101180.00;;;;5075095;28;20206;-77
2022/05/16 06:45:15;;;;;;;3.47;2.33;;;;;25.20;101185.00;;;;5074648;28;20194;-76
2022/05/16 06:47:42;;;;;;;4.55;2.75;;;;;25.20;101189.00;;;;5069936;28;20248;-76
2022/05/16 06:50:11;;;;;;;4.55;2.28;;;;;25.20;101192.00;;;;5079944;28;20245;-76
2022/05/16 06:52:38;;;;;;;5.28;2.60;;;;;25.20;101187.00;;;;5078088;28;20758;-76
2022/05/16 06:55:08;;;;;;;4.95;2.88;;;;;25.20;101188.00;;;;5075555;28;20199;-76
2022/05/16 06:57:36;;;;;;;3.85;2.70;;;;;25.20;101192.00;;;;5084302;28;20205;-76
2022/05/16 07:00:07;;;;;;;4.70;2.53;;;;;25.20;101195.00;;;;5086222;28;20205;-76
2022/05/16 07:02:34;;;;;;;4.72;2.47;;;;;25.20;101194.00;;;;5083513;28;20202;-76
2022/05/16 07:05:02;;;;;;;4.30;2.72;;;;;25.20;101200.00;;;;5083054;28;20281;-76
2022/05/16 07:07:30;;;;;;;3.10;2.60;;;;;25.20;101202.00;;;;5082454;28;20194;-76
2022/05/16 07:09:57;;;;;;;4.03;2.95;;;;;25.20;101201.00;;;;5078520;28;20227;-77
2022/05/16 07:12:26;;;;;;;4.07;2.20;;;;;25.20;101205.00;;;;5076699;28;20228;-77
2022/05/16 07:14:53;;;;;;;5.05;2.53;;;;;25.30;101200.00;;;;5083347;28;20213;-77
2022/05/16 07:17:20;;;;;;;6.05;2.72;;;;;25.30;101201.00;;;;5082389;28;20194;-77
2022/05/16 07:19:49;;;;;;;4.25;2.70;;;;;25.40;101202.00;;;;5086477;28;20210;-78
2022/05/16 07:22:22;;;;;;;6.68;2.50;;;;;25.40;101205.00;;;;5076655;28;20191;-78
2022/05/16 07:24:51;;;;;;;4.20;2.85;;;;;25.40;101198.00;;;;5081691;28;20306;-77
2022/05/16 07:30:06;;;;;;;4.55;2.72;;;;;25.50;101208.00;;;;5067606;28;20246;-76
2022/05/16 07:32:35;;;;;;;6.00;3.40;;;;;25.50;101211.00;;;;5075957;28;20194;-76
2022/05/16 07:35:04;;;;;;;9.70;3.58;;;;;25.60;101209.00;;;;5086042;28;21033;-77
2022/05/16 07:37:32;;;;;;;6.82;2.83;;;;;25.60;101213.00;;;;5083642;28;20286;-76
2022/05/16 07:39:59;;;;;;;4.25;2.38;;;;;25.70;101214.00;;;;5077977;28;20318;-76
2022/05/16 07:42:26;;;;;;;4.88;3.15;;;;;25.80;101230.00;;;;5078241;28;20195;-77
2022/05/16 07:44:54;;;;;;;6.38;3.83;;;;;25.80;101226.00;;;;5070190;28;20577;-78
2022/05/16 07:47:22;;;;;;;8.77;3.53;;;;;25.80;101228.00;;;;5074209;28;20435;-79
2022/05/16 07:49:50;;;;;;;6.22;2.92;;;;;25.90;101232.00;;;;5080594;28;20226;-78
2022/05/16 07:52:17;;;;;;;5.32;2.83;;;;;25.90;101234.00;;;;5076205;28;20683;-78
2022/05/16 07:54:44;;;;;;;4.00;2.47;;;;;26.00;101231.00;;;;5076644;28;20198;-79
2022/05/16 07:57:12;;;;;;;3.40;2.60;;;;;26.00;101235.00;;;;5085132;28;20198;-80
2022/05/16 07:59:41;;;;;;;7.85;3.42;;;;;26.10;101239.00;;;;5072033;28;20218;-80
2022/05/16 08:02:09;;;;;;;3.78;2.53;;;;;26.20;101240.00;;;;5074518;28;20195;-80
2022/05/16 08:04:37;;;;;;;6.78;3.28;;;;;26.20;101243.00;;;;5085694;28;20191;-80
2022/05/16 08:07:05;;;;;;;6.22;3.22;;;;;26.30;101251.00;;;;5088121;28;20210;-80
2022/05/16 08:12:24;;;;;;;7.55;3.70;;;;;26.30;101247.00;;;;5076752;28;20225;-78
2022/05/16 08:14:51;;;;;;;4.57;2.78;;;;;26.40;101247.00;;;;5082508;28;20293;-79
2022/05/16 08:17:20;;;;;;;5.10;3.50;;;;;26.50;101256.00;;;;5089378;28;20194;-80
2022/05/16 08:19:49;;;;;;;4.72;2.92;;;;;26.50;101259.00;;;;5075936;28;20604;-81
2022/05/16 08:22:18;;;;;;;4.93;3.20;;;;;26.60;101267.00;;;;5079310;28;20202;-79
2022/05/16 08:24:46;;;;;;;4.28;3.60;;;;;26.70;101265.00;;;;5070146;28;20294;-79
2022/05/16 08:27:13;;;;;;;5.45;3.63;;;;;26.80;101268.00;;;;5081018;28;21552;-79
2022/05/16 08:29:40;;;;;;;5.50;3.30;;;;;26.80;101268.00;;;;5090276;28;20241;-78
2022/05/16 08:32:08;;;;;;;5.78;3.13;;;;;26.90;101263.00;;;;5090032;28;20740;-78
2022/05/16 08:34:35;;;;;;;5.40;2.72;;;;;26.90;101271.00;;;;5090287;28;20205;-77
2022/05/16 08:40:01;;;;;;;5.65;3.17;;;;;27.00;101281.00;;;;5085167;28;20632;-77
2022/05/16 08:42:37;;;;;;;5.32;2.63;;;;;27.00;101275.00;;;;5090806;28;20201;-79
2022/05/16 08:45:09;;;;;;;4.50;3.40;;;;;27.10;101276.00;;;;5089736;28;20194;-78
2022/05/16 08:47:48;;;;;;;5.47;2.85;;;;;27.10;101277.00;;;;5076177;28;20195;-78
2022/05/16 08:50:18;;;;;;;5.80;2.90;;;;;27.20;101275.00;;;;5088949;28;21148;-78
2022/05/16 08:52:52;;;;;;;7.15;3.15;;;;;27.30;101276.00;;;;5089049;28;20306;-78
2022/05/16 08:55:28;;;;;;;4.18;3.25;;;;;27.30;101271.00;;;;5078205;28;20230;-78
2022/05/16 08:58:00;;;;;;;6.82;3.33;;;;;27.40;101275.00;;;;5072123;28;20198;-79
2022/05/16 09:00:33;;;;;;;8.57;3.60;;;;;27.40;101275.00;;;;5075988;28;20195;-79
2022/05/16 09:03:03;;;;;;;4.68;3.17;;;;;27.50;101278.00;;;;5086413;28;20202;-78
2022/05/16 09:05:36;;;;;;;5.60;3.13;;;;;27.50;101275.00;;;;5087724;28;20202;-78
2022/05/16 09:08:09;;;;;;;3.53;2.70;;;;;27.60;101280.00;;;;5069886;28;21030;-78
2022/05/16 09:10:55;;;;;;;4.75;3.30;;;;;27.70;101281.00;;;;5069470;28;20597;-78
2022/05/16 09:13:35;;;;;;;3.75;3.15;;;;;27.90;101275.00;;;;5073733;28;20251;-78
2022/05/16 09:16:13;;;;;;;5.40;2.97;;;;;28.20;101265.00;;;;5085358;28;20198;-79
2022/05/16 09:18:48;;;;;;;15.50;3.92;;;;;28.40;101285.00;;;;5090259;28;20194;-78
2022/05/16 09:21:22;;;;;;;5.15;3.17;;;;;28.70;101283.00;;;;5081756;28;20577;-78
2022/05/16 09:23:59;;;;;;;4.65;3.53;;;;;28.90;101275.00;;;;5088478;28;20296;-79
2022/05/16 09:26:36;;;;;;;3.33;2.97;;;;;29.10;101280.00;;;;5082819;28;20244;-78
2022/05/16 09:29:17;;;;;;;7.70;3.17;;;;;29.30;101268.00;;;;5089487;28;20213;-79
2022/05/16 09:31:48;;;;;;;6.30;3.35;;;;;29.60;101264.00;;;;5084979;28;20233;-79
2022/05/16 09:34:16;;;;;;;7.63;3.15;;;;;29.90;101269.00;;;;5088060;28;20206;-78
2022/05/16 09:36:48;;;;;;;3.88;3.40;;;;;30.10;101270.00;;;;5086655;28;20259;-79
2022/05/16 09:39:20;;;;;;;4.55;3.05;;;;;30.30;101268.00;;;;5088545;28;20615;-79
2022/05/16 09:41:55;;;;;;;3.50;3.17;;;;;30.50;101261.00;;;;5089179;28;20198;-79
2022/05/16 09:44:27;;;;;;;6.00;3.67;;;;;30.70;101265.00;;;;5088188;28;20213;-79
2022/05/16 09:47:22;;;;;;;2.80;2.55;;;;;30.90;101266.00;;;;5079225;28;20231;-79
2022/05/16 09:50:11;;;;;;;4.22;2.92;;;;;31.10;101267.00;;;;5081802;28;20214;-78
2022/05/16 09:52:45;;;;;;;3.13;2.28;;;;;31.40;101259.00;;;;5081759;28;20217;-80
2022/05/16 09:55:24;;;;;;;7.20;3.47;;;;;31.60;101265.00;;;;5082593;28;20215;-79
2022/05/16 09:57:56;;;;;;;3.75;2.60;;;;;31.80;101275.00;;;;5068434;28;20198;-79
2022/05/16 10:00:31;;;;;;;9.77;3.28;;;;;31.90;101282.00;;;;5087635;28;20672;-79
2022/05/16 10:03:13;;;;;;;6.60;3.38;;;;;32.00;101294.00;;;;5081204;28;20675;-79
2022/05/16 10:05:46;;;;;;;5.63;3.47;;;;;32.00;101304.00;;;;5080055;28;20317;-79
2022/05/16 10:08:22;;;;;;;3.08;2.78;;;;;32.00;101310.00;;;;5099039;28;20209;-78
2022/05/16 10:10:51;;;;;;;5.40;2.90;;;;;32.00;101310.00;;;;5068179;28;20704;-78
2022/05/16 10:13:19;;;;;;;3.80;3.40;;;;;32.10;101312.00;;;;5079593;28;20223;-79
2022/05/16 10:15:49;;;;;;;6.82;3.47;;;;;32.20;101315.00;;;;5074193;28;20639;-79
2022/05/16 10:18:20;;;;;;;10.85;3.42;;;;;32.30;101324.00;;;;5077226;28;20251;-79
2022/05/16 10:20:54;;;;;;;5.75;2.65;;;;;32.40;101328.00;;;;5076176;28;20199;-78
2022/05/16 10:23:25;;;;;;;4.90;2.50;;;;;32.50;101326.00;;;;5081015;28;20190;-80
2022/05/16 10:25:57;;;;;;;4.75;2.80;;;;;32.50;101329.00;;;;5086084;28;20197;-79
2022/05/16 10:28:29;;;;;;;3.22;2.65;;;;;32.50;101331.00;;;;5076498;28;20295;-79
2022/05/16 10:33:48;;;;;;;4.45;2.17;;;;;32.60;101339.00;;;;5076576;28;20208;-79
2022/05/16 10:36:25;;;;;;;3.67;2.45;;;;;32.50;101338.00;;;;5088467;28;20202;-78
2022/05/16 10:39:00;;;;;;;2.75;1.88;;;;;32.50;101346.00;;;;5087170;28;20217;-79
2022/05/16 10:41:35;;;;;;;4.22;2.10;;;;;32.50;101345.00;;;;5083967;28;20231;-79
2022/05/16 10:44:12;;;;;;;6.32;2.20;;;;;32.40;101344.00;;;;5059964;28;20193;-79
2022/05/16 10:46:44;;;;;;;4.22;2.40;;;;;32.40;101352.00;;;;5081063;28;20382;-78
2022/05/16 10:49:16;;;;;;;2.60;2.30;;;;;32.30;101350.00;;;;5078181;28;20205;-79
2022/05/16 10:51:50;;;;;;;2.78;1.67;;;;;32.20;101358.00;;;;5078862;28;20221;-80
2022/05/16 10:54:20;;;;;;;2.63;1.50;;;;;32.10;101358.00;;;;5087135;28;20217;-78
2022/05/16 10:57:31;;;;;;;3.33;1.27;;;;;31.90;101369.00;;;;5086958;28;20225;-80
2022/05/16 11:00:19;;;;;;;6.82;1.42;;;;;31.60;101374.00;;;;5019516;28;20207;-79
2022/05/16 11:03:29;;;;;;;2.50;1.80;;;;;31.50;101375.00;;;;5076045;28;20205;-79
2022/05/16 11:06:14;;;;;;;4.13;1.60;;;;;31.40;101389.00;;;;5079053;28;20199;-78
2022/05/16 11:08:49;;;;;;;3.08;1.65;;;;;31.20;101386.00;;;;5082816;28;20202;-79
2022/05/16 11:11:25;;;;;;;2.17;1.48;;;;;31.00;101389.00;;;;5072496;28;20222;-79
2022/05/16 11:14:05;;;;;;;3.40;1.88;;;;;30.80;101391.00;;;;5067886;28;20758;-79
2022/05/16 11:16:34;;;;;;;5.28;1.52;;;;;30.70;101386.00;;;;5074789;28;20243;-78
2022/05/16 11:19:16;;;;;;;4.97;1.90;;;;;30.40;101387.00;;;;5075371;28;20210;-79
2022/05/16 11:21:48;;;;;;;3.28;1.85;;;;;30.30;101396.00;;;;5079160;28;20202;-80
2022/05/16 11:24:27;;;;;;;3.92;1.80;;;;;30.10;101405.00;;;;5074168;28;20238;-81
2022/05/16 11:27:02;;;;;;;2.38;1.27;;;;;30.00;101426.00;;;;5077983;28;20199;-79
2022/05/16 11:29:39;;;;;;;3.88;2.10;;;;;29.70;101432.00;;;;5067584;28;20264;-80
2022/05/16 11:32:25;;;;;;;3.17;1.80;;;;;29.50;101431.00;;;;5083929;28;20640;-82
2022/05/16 11:35:01;;;;;;;3.33;1.70;;;;;29.30;101436.00;;;;5083152;28;20694;-78
2022/05/16 11:37:42;;;;;;;2.22;1.65;;;;;29.10;101436.00;;;;5086874;28;20695;-78
2022/05/16 11:40:18;;;;;;;2.53;1.95;;;;;29.00;101444.00;;;;5090429;28;20234;-78
2022/05/16 11:42:56;;;;;;;2.97;1.73;;;;;28.80;101444.00;;;;5091192;28;20209;-79
2022/05/16 11:45:40;;;;;;;3.33;1.60;;;;;28.70;101438.00;;;;5082893;28;20202;-79
2022/05/16 11:48:23;;;;;;;2.97;1.80;;;;;28.50;101433.00;;;;5086082;28;20644;-79
2022/05/16 11:51:15;;;;;;;2.85;1.95;;;;;28.50;101442.00;;;;5085919;28;20226;-79
2022/05/16 11:53:50;;;;;;;2.83;2.20;;;;;28.40;101429.00;;;;5083764;28;20215;-79
2022/05/16 12:02:16;;;;;;;6.35;2.00;;;;;28.30;101443.00;;;;5080088;28;20210;-79
2022/05/16 12:04:47;;;;;;;2.20;1.98;;;;;28.40;101438.00;;;;5080226;28;20697;-79
2022/05/16 12:07:29;;;;;;;4.10;2.45;;;;;28.30;101439.00;;;;5079782;28;20667;-80
2022/05/16 12:10:01;;;;;;;2.15;1.67;;;;;28.40;101436.00;;;;5086370;28;20277;-79
2022/05/16 12:12:32;;;;;;;3.20;2.55;;;;;28.50;101441.00;;;;5090444;28;20308;-78
2022/05/16 12:15:18;;;;;;;5.43;2.47;;;;;28.40;101445.00;;;;5076478;28;20199;-78
2022/05/16 12:17:53;;;;;;;6.90;4.20;;;;;28.50;101451.00;;;;5074894;28;20214;-78
2022/05/16 12:20:59;;;;;;;6.80;4.75;;;;;28.40;101447.00;;;;5076461;28;20186;-77
2022/05/16 12:24:03;;;;;;;4.68;4.25;;;;;28.40;101442.00;;;;5070964;28;20209;-79
2022/05/16 12:27:03;;;;;;;8.02;4.75;;;;;28.30;101454.00;;;;5070844;28;20260;-78
2022/05/16 12:29:38;;;;;;;8.20;5.43;;;;;28.40;101466.00;;;;5070864;28;20199;-77
2022/05/16 12:32:05;;;;;;;9.07;6.70;;;;;28.40;101469.00;;;;5076083;28;20225;-78
2022/05/16 12:34:49;;;;;;;8.95;6.03;;;;;28.20;101459.00;;;;5070741;28;20199;-78
2022/05/16 12:37:19;;;;;;;6.18;5.57;;;;;28.30;101473.00;;;;5087991;28;20206;-80
2022/05/16 12:40:03;;;;;;;9.25;6.65;;;;;28.20;101474.00;;;;5083152;28;20284;-80
2022/05/16 12:43:05;;;;;;;6.53;5.55;;;;;28.10;101482.00;;;;5070321;28;20215;-79
2022/05/16 12:45:55;;;;;;;4.65;3.50;;;;;28.00;101486.00;;;;5088224;28;20204;-78
2022/05/16 12:48:56;;;;;;;4.10;3.40;;;;;27.90;101494.00;;;;5083607;28;20930;-79
2022/05/16 12:51:44;;;;;;;4.45;3.55;;;;;27.80;101499.00;;;;5081548;28;20688;-80
2022/05/16 12:54:46;;;;;;;2.63;2.40;;;;;27.80;101501.00;;;;5067013;28;20214;-80
2022/05/16 12:57:39;;;;;;;2.92;2.30;;;;;27.70;101507.00;;;;5077371;28;20194;-79
2022/05/16 13:00:10;;;;;;;4.28;2.58;;;;;27.70;101512.00;;;;5080659;28;20190;-79
2022/05/16 13:03:03;;;;;;;4.50;2.58;;;;;27.50;101513.00;;;;5082996;28;20200;-81
2022/05/16 13:05:36;;;;;;;5.28;2.63;;;;;27.50;101517.00;;;;5081424;28;20209;-77